Ufimets — UFNC — position and weather

sailwx.info

Track history (hours):
 
Tides and Currents Weather Stations Pressure Air Temp Water Temp Dewpoint Dewpoint Depression Visibility Wind Speed Wind Dir Waves Ship Positions

Ufimets

Last reported at 2017-Nov-03 07:05 UTC. Time now 2017-Dec-17 23:07 UTC.
Position N 59°48' E 030°38'.
Warning: this ship's position is 44 days out of date.

Length 82 m; draft 1.8 m.

Type: Ship. MMSI: 27343260.

Date/timePositionNaut miles runAvg speedWind from/ knotsBaromVisibWave heightAir tempDewpointWater temp
2017-Nov-03 07:05N 59°48' E 030°38'0 4.1
2017-Nov-03 07:00N 59°48' E 030°37'4 0.6
2017-Nov-03 00:58N 59°50' E 030°32'2 4.9
2017-Nov-03 00:30N 59°52' E 030°29'2 4.7
2017-Nov-03 00:00N 59°54' E 030°26'3 5.3
2017-Nov-02 23:30N 59°56' E 030°24'2 3.5
2017-Nov-02 23:00N 59°57' E 030°21'2 4.2
2017-Nov-02 22:29N 59°56' E 030°17'0 0.1
2017-Nov-02 21:59N 59°56' E 030°17'0 0.0
2017-Nov-02 21:29N 59°56' E 030°17'0 0.0
2017-Nov-02 20:59N 59°56' E 030°17'0 0.0
2017-Nov-02 20:29N 59°56' E 030°17'0 0.0
2017-Nov-02 19:59N 59°56' E 030°17'0 0.0
2017-Nov-02 19:29N 59°56' E 030°17'0 0.0
2017-Nov-02 18:59N 59°56' E 030°17'1 2.9
2017-Nov-02 18:30N 59°55' E 030°15'3 6.9
2017-Nov-02 18:00N 59°56' E 030°09'4 7.1
2017-Nov-02 17:30N 59°56' E 030°02'4 7.5
2017-Nov-02 17:00N 59°56' E 029°54'4 7.8
2017-Nov-02 16:30N 59°58' E 029°47'12 7.2
2017-Nov-02 14:48N 60°01' E 029°24'8 7.6
2017-Nov-02 13:46N 60°02' E 029°08'2 7.8
2017-Nov-02 13:27N 60°02' E 029°03'3 6.4
2017-Nov-02 12:57N 60°04' E 028°59'4 8.0
2017-Nov-02 12:30N 60°07' E 028°57'4 7.6
2017-Nov-02 11:59N 60°11' E 028°53'4 8.1
2017-Nov-02 11:30N 60°12' E 028°46'4 7.9
2017-Nov-02 11:01N 60°14' E 028°38'4 7.9
2017-Nov-02 10:30N 60°16' E 028°31'13 0.3
2017-Oct-31 13:33N 60°28' E 028°21'0 5.7
2017-Oct-31 13:30N 60°28' E 028°21'3 5.3
2017-Oct-31 13:01N 60°25' E 028°20'3 5.5
2017-Oct-31 12:31N 60°23' E 028°21'3 5.2
2017-Oct-31 12:01N 60°20' E 028°22'3 5.2
2017-Oct-31 11:31N 60°18' E 028°25'3 5.7
2017-Oct-31 11:01N 60°16' E 028°30'3 6.1
2017-Oct-31 10:31N 60°15' E 028°35'3 6.3
2017-Oct-31 10:01N 60°13' E 028°41'3 6.0
2017-Oct-31 09:30N 60°12' E 028°46'3 5.9
2017-Oct-31 09:00N 60°11' E 028°52'8 4.9
2017-Oct-31 07:22N 60°04' E 028°59'19 5.9
2017-Oct-31 04:06N 60°00' E 029°37'1 4.1
2017-Oct-31 03:58N 59°60' E 029°38'3 6.7
2017-Oct-31 03:29N 59°59' E 029°44'3 6.4
2017-Oct-31 03:00N 59°57' E 029°49'3 6.2
2017-Oct-31 02:30N 59°56' E 029°55'3 6.2
2017-Oct-31 02:00N 59°55' E 030°01'3 6.5
2017-Oct-31 01:30N 59°54' E 030°07'3 6.2
2017-Oct-31 01:00N 59°54' E 030°13'4 7.3
2017-Oct-31 00:30N 59°56' E 030°18'3 5.6
2017-Oct-31 00:00N 59°56' E 030°24'1 2.0
2017-Oct-30 23:25N 59°55' E 030°24'0 0.0
2017-Oct-30 22:58N 59°55' E 030°24'0 0.0
2017-Oct-30 22:28N 59°55' E 030°24'0 0.0
2017-Oct-30 21:58N 59°55' E 030°24'0 0.0
2017-Oct-30 21:25N 59°55' E 030°24'0 0.0
2017-Oct-30 20:58N 59°55' E 030°24'0 0.0
2017-Oct-30 20:25N 59°55' E 030°24'0 0.0
2017-Oct-30 19:49N 59°55' E 030°24'0 0.0
2017-Oct-30 19:28N 59°55' E 030°24'0 0.0
2017-Oct-30 18:58N 59°55' E 030°24'0 0.0
2017-Oct-30 18:22N 59°55' E 030°24'0 0.0
2017-Oct-30 17:58N 59°55' E 030°24'0 0.0
2017-Oct-30 17:28N 59°55' E 030°24'0 0.0
2017-Oct-30 16:55N 59°55' E 030°24'0 0.0
2017-Oct-30 16:22N 59°55' E 030°24'0 0.0
2017-Oct-30 15:58N 59°55' E 030°24'0 0.0
2017-Oct-30 15:28N 59°55' E 030°24'0 0.0
2017-Oct-30 14:59N 59°55' E 030°24'0 0.0
2017-Oct-30 14:28N 59°55' E 030°24'0 0.0
2017-Oct-30 13:28N 59°55' E 030°24'0 0.0
2017-Oct-30 12:58N 59°55' E 030°24'0 0.0
2017-Oct-30 12:28N 59°55' E 030°24'0 0.0
2017-Oct-30 11:58N 59°55' E 030°24'0 0.0
2017-Oct-30 11:28N 59°55' E 030°24'0 0.0
2017-Oct-30 10:58N 59°55' E 030°24'0 0.0
2017-Oct-30 10:28N 59°55' E 030°24'0 0.0
2017-Oct-30 09:58N 59°55' E 030°24'0 0.0
2017-Oct-30 09:28N 59°55' E 030°24'0 0.0
2017-Oct-30 09:01N 59°55' E 030°24'2 3.1
2017-Oct-30 08:30N 59°54' E 030°26'4 8.5
2017-Oct-30 08:00N 59°51' E 030°31'4 8.0
2017-Oct-30 07:30N 59°48' E 030°37'  
Track history (hours):
 
Tides and Currents Weather Stations Pressure Air Temp Water Temp Dewpoint Dewpoint Depression Visibility Wind Speed Wind Dir Waves Ship Positions

Ufimets

Last reported at 2017-Nov-03 07:05 UTC. Time now 2017-Dec-17 23:07 UTC.
Position N 59°48' E 030°38'.
Warning: this ship's position is 44 days out of date.

Length 82 m; draft 1.8 m.

Type: Ship. MMSI: 27343260.

Date/timePositionNaut miles runAvg speedWind from/ knotsBaromVisibWave heightAir tempDewpointWater temp
2017-Nov-03 07:05N 59°48' E 030°38'0 4.1
2017-Nov-03 07:00N 59°48' E 030°37'4 0.6
2017-Nov-03 00:58N 59°50' E 030°32'2 4.9
2017-Nov-03 00:30N 59°52' E 030°29'2 4.7
2017-Nov-03 00:00N 59°54' E 030°26'3 5.3
2017-Nov-02 23:30N 59°56' E 030°24'2 3.5
2017-Nov-02 23:00N 59°57' E 030°21'2 4.2
2017-Nov-02 22:29N 59°56' E 030°17'0 0.1
2017-Nov-02 21:59N 59°56' E 030°17'0 0.0
2017-Nov-02 21:29N 59°56' E 030°17'0 0.0
2017-Nov-02 20:59N 59°56' E 030°17'0 0.0
2017-Nov-02 20:29N 59°56' E 030°17'0 0.0
2017-Nov-02 19:59N 59°56' E 030°17'0 0.0
2017-Nov-02 19:29N 59°56' E 030°17'0 0.0
2017-Nov-02 18:59N 59°56' E 030°17'1 2.9
2017-Nov-02 18:30N 59°55' E 030°15'3 6.9
2017-Nov-02 18:00N 59°56' E 030°09'4 7.1
2017-Nov-02 17:30N 59°56' E 030°02'4 7.5
2017-Nov-02 17:00N 59°56' E 029°54'4 7.8
2017-Nov-02 16:30N 59°58' E 029°47'12 7.2
2017-Nov-02 14:48N 60°01' E 029°24'8 7.6
2017-Nov-02 13:46N 60°02' E 029°08'2 7.8
2017-Nov-02 13:27N 60°02' E 029°03'3 6.4
2017-Nov-02 12:57N 60°04' E 028°59'4 8.0
2017-Nov-02 12:30N 60°07' E 028°57'4 7.6
2017-Nov-02 11:59N 60°11' E 028°53'4 8.1
2017-Nov-02 11:30N 60°12' E 028°46'4 7.9
2017-Nov-02 11:01N 60°14' E 028°38'4 7.9
2017-Nov-02 10:30N 60°16' E 028°31'13 0.3
2017-Oct-31 13:33N 60°28' E 028°21'0 5.7
2017-Oct-31 13:30N 60°28' E 028°21'3 5.3
2017-Oct-31 13:01N 60°25' E 028°20'3 5.5
2017-Oct-31 12:31N 60°23' E 028°21'3 5.2
2017-Oct-31 12:01N 60°20' E 028°22'3 5.2
2017-Oct-31 11:31N 60°18' E 028°25'3 5.7
2017-Oct-31 11:01N 60°16' E 028°30'3 6.1
2017-Oct-31 10:31N 60°15' E 028°35'3 6.3
2017-Oct-31 10:01N 60°13' E 028°41'3 6.0
2017-Oct-31 09:30N 60°12' E 028°46'3 5.9
2017-Oct-31 09:00N 60°11' E 028°52'8 4.9
2017-Oct-31 07:22N 60°04' E 028°59'19 5.9
2017-Oct-31 04:06N 60°00' E 029°37'1 4.1
2017-Oct-31 03:58N 59°60' E 029°38'3 6.7
2017-Oct-31 03:29N 59°59' E 029°44'3 6.4
2017-Oct-31 03:00N 59°57' E 029°49'3 6.2
2017-Oct-31 02:30N 59°56' E 029°55'3 6.2
2017-Oct-31 02:00N 59°55' E 030°01'3 6.5
2017-Oct-31 01:30N 59°54' E 030°07'3 6.2
2017-Oct-31 01:00N 59°54' E 030°13'4 7.3
2017-Oct-31 00:30N 59°56' E 030°18'3 5.6
2017-Oct-31 00:00N 59°56' E 030°24'1 2.0
2017-Oct-30 23:25N 59°55' E 030°24'0 0.0
2017-Oct-30 22:58N 59°55' E 030°24'0 0.0
2017-Oct-30 22:28N 59°55' E 030°24'0 0.0
2017-Oct-30 21:58N 59°55' E 030°24'0 0.0
2017-Oct-30 21:25N 59°55' E 030°24'0 0.0
2017-Oct-30 20:58N 59°55' E 030°24'0 0.0
2017-Oct-30 20:25N 59°55' E 030°24'0 0.0
2017-Oct-30 19:49N 59°55' E 030°24'0 0.0
2017-Oct-30 19:28N 59°55' E 030°24'0 0.0
2017-Oct-30 18:58N 59°55' E 030°24'0 0.0
2017-Oct-30 18:22N 59°55' E 030°24'0 0.0
2017-Oct-30 17:58N 59°55' E 030°24'0 0.0
2017-Oct-30 17:28N 59°55' E 030°24'0 0.0
2017-Oct-30 16:55N 59°55' E 030°24'0 0.0
2017-Oct-30 16:22N 59°55' E 030°24'0 0.0
2017-Oct-30 15:58N 59°55' E 030°24'0 0.0
2017-Oct-30 15:28N 59°55' E 030°24'0 0.0
2017-Oct-30 14:59N 59°55' E 030°24'0 0.0
2017-Oct-30 14:28N 59°55' E 030°24'0 0.0
2017-Oct-30 13:28N 59°55' E 030°24'0 0.0
2017-Oct-30 12:58N 59°55' E 030°24'0 0.0
2017-Oct-30 12:28N 59°55' E 030°24'0 0.0
2017-Oct-30 11:58N 59°55' E 030°24'0 0.0
2017-Oct-30 11:28N 59°55' E 030°24'0 0.0
2017-Oct-30 10:58N 59°55' E 030°24'0 0.0
2017-Oct-30 10:28N 59°55' E 030°24'0 0.0
2017-Oct-30 09:58N 59°55' E 030°24'0 0.0
2017-Oct-30 09:28N 59°55' E 030°24'0 0.0
2017-Oct-30 09:01N 59°55' E 030°24'2 3.1
2017-Oct-30 08:30N 59°54' E 030°26'4 8.5
2017-Oct-30 08:00N 59°51' E 030°31'4 8.0
2017-Oct-30 07:30N 59°48' E 030°37'  

Dump ship's entire track history